Time;durP1;ratioP1;P1;durP2;ratioP2;P2;SDS_P1;SDS_P2;PMS_P1;PMS_P2;Temp;Humidity;BMP_temperature;BMP_pressure;BME280_temperature;BME280_humidity;BME280_pressure;Samples;Min_cycle;Max_cycle;Signal;HPM_P1;HPM_P2
2022/11/05 00:09:44;;;;;;;6.47;1.20;;;9.20;75.50;;;;;;5075017;28;20055;-74
2022/11/05 00:17:42;;;;;;;4.43;1.42;;;9.20;75.70;;;;;;5074484;28;20074;-74
2022/11/05 00:20:09;;;;;;;3.80;1.13;;;9.20;75.80;;;;;;5074456;28;20491;-73
2022/11/05 00:25:20;;;;;;;2.85;1.23;;;9.20;75.80;;;;;;5075061;28;20043;-74
2022/11/05 00:27:53;;;;;;;3.38;1.40;;;9.20;75.80;;;;;;5074728;28;20040;-74
2022/11/05 00:30:23;;;;;;;2.92;1.45;;;9.20;75.90;;;;;;5074657;28;20568;-74
2022/11/05 00:32:50;;;;;;;2.60;0.90;;;9.20;75.90;;;;;;5074737;28;20456;-74
2022/11/05 00:35:21;;;;;;;4.50;1.20;;;9.20;75.80;;;;;;5058376;28;20032;-74
2022/11/05 00:37:47;;;;;;;4.68;1.50;;;9.20;75.80;;;;;;5041381;28;20032;-74
2022/11/05 00:40:14;;;;;;;4.32;0.95;;;9.20;76.20;;;;;;5074472;28;20040;-74
2022/11/05 00:45:28;;;;;;;5.70;1.55;;;9.20;75.80;;;;;;5074704;28;20047;-74
2022/11/05 00:50:38;;;;;;;3.13;1.00;;;9.30;75.70;;;;;;5074443;28;20141;-74
2022/11/05 00:53:04;;;;;;;3.65;1.23;;;9.20;75.60;;;;;;5057540;28;20044;-74
2022/11/05 00:55:37;;;;;;;3.83;0.82;;;9.20;75.50;;;;;;5057967;28;20032;-74
2022/11/05 00:58:06;;;;;;;3.30;1.02;;;9.30;75.60;;;;;;5074494;28;20134;-74
2022/11/05 01:00:34;;;;;;;4.53;0.77;;;9.20;75.40;;;;;;5074456;28;20040;-74
2022/11/05 01:03:02;;;;;;;3.42;0.95;;;9.20;75.40;;;;;;5073987;28;20069;-74
2022/11/05 01:05:29;;;;;;;6.30;1.33;;;9.20;75.30;;;;;;5074594;28;20502;-75
2022/11/05 01:07:55;;;;;;;4.53;1.17;;;9.20;75.40;;;;;;5057685;28;20040;-74
2022/11/05 01:10:23;;;;;;;2.55;0.90;;;9.20;75.30;;;;;;5056762;28;20097;-74
2022/11/05 01:12:49;;;;;;;2.80;0.90;;;9.20;75.30;;;;;;5057669;28;20036;-74
2022/11/05 01:15:16;;;;;;;3.33;0.82;;;9.20;75.30;;;;;;5057742;28;20078;-74
2022/11/05 01:17:41;;;;;;;2.65;0.88;;;9.10;75.20;;;;;;5057341;28;20078;-74
2022/11/05 01:20:07;;;;;;;4.75;1.10;;;9.20;75.20;;;;;;5070667;28;20103;-75
2022/11/05 01:22:33;;;;;;;2.75;0.90;;;9.20;75.20;;;;;;5040417;28;20085;-73
2022/11/05 01:24:59;;;;;;;3.22;1.33;;;9.10;75.10;;;;;;5040816;28;20036;-75
2022/11/05 01:27:24;;;;;;;2.35;0.90;;;9.10;75.10;;;;;;5074062;28;20040;-74
2022/11/05 01:29:50;;;;;;;2.78;0.98;;;9.10;75.10;;;;;;5074135;28;20076;-74
2022/11/05 01:32:16;;;;;;;2.60;1.05;;;9.10;75.10;;;;;;5073893;28;20047;-74
2022/11/05 01:34:41;;;;;;;2.97;1.00;;;9.10;75.10;;;;;;5057772;28;20036;-75
2022/11/05 01:37:07;;;;;;;4.88;1.38;;;9.10;75.10;;;;;;5057751;28;20081;-74
2022/11/05 01:39:33;;;;;;;5.40;1.67;;;9.00;75.00;;;;;;5057252;28;20061;-74
2022/11/05 01:41:58;;;;;;;3.25;0.80;;;9.10;75.10;;;;;;5054177;28;20032;-74
2022/11/05 01:44:55;;;;;;;2.47;0.93;;;9.10;75.10;;;;;;5069434;28;20049;-74
2022/11/05 01:47:35;;;;;;;3.13;1.17;;;9.00;75.00;;;;;;5057456;28;20525;-74
2022/11/05 01:50:40;;;;;;;2.92;1.30;;;9.00;75.10;;;;;;5090494;28;20044;-74
2022/11/05 01:53:15;;;;;;;2.50;1.27;;;9.00;75.00;;;;;;5073926;28;20028;-75
2022/11/05 01:55:46;;;;;;;4.60;1.23;;;8.90;75.10;;;;;;5065556;28;20113;-74
2022/11/05 01:58:17;;;;;;;3.60;1.42;;;9.00;75.10;;;;;;5070132;28;20564;-75
2022/11/05 02:00:43;;;;;;;3.13;1.30;;;8.90;75.10;;;;;;5073391;28;20047;-74
2022/11/05 02:03:09;;;;;;;5.10;1.67;;;8.90;75.10;;;;;;5040047;28;20048;-75
2022/11/05 02:05:35;;;;;;;3.67;1.27;;;8.90;75.10;;;;;;5073741;28;20040;-74
2022/11/05 02:08:01;;;;;;;5.10;2.00;;;8.90;75.10;;;;;;5059343;28;20052;-74
2022/11/05 02:10:27;;;;;;;7.45;2.17;;;8.90;75.20;;;;;;5060512;28;20135;-74
2022/11/05 02:12:53;;;;;;;5.47;2.33;;;8.80;75.10;;;;;;5077184;28;20487;-74
2022/11/05 02:15:38;;;;;;;3.60;1.40;;;8.90;75.20;;;;;;5060601;28;20042;-74
2022/11/05 02:18:10;;;;;;;3.67;1.50;;;8.90;75.30;;;;;;5076967;28;20044;-74
2022/11/05 02:21:04;;;;;;;4.00;1.50;;;8.80;75.30;;;;;;5075858;28;20048;-74
2022/11/05 02:23:38;;;;;;;3.95;1.73;;;8.80;75.30;;;;;;5073075;28;20036;-74
2022/11/05 02:26:42;;;;;;;3.13;1.60;;;8.80;75.40;;;;;;5061165;28;20040;-74
2022/11/05 02:29:21;;;;;;;4.15;1.52;;;8.80;75.40;;;;;;5005641;28;20081;-73
2022/11/05 02:32:19;;;;;;;5.10;1.70;;;8.80;75.50;;;;;;5016316;28;20421;-74
2022/11/05 02:35:19;;;;;;;3.90;1.63;;;8.80;75.40;;;;;;5047358;28;20043;-74
2022/11/05 02:37:57;;;;;;;4.03;1.73;;;8.70;75.50;;;;;;5019799;28;20112;-74
2022/11/05 02:40:45;;;;;;;7.25;1.80;;;8.70;76.00;;;;;;5074141;28;20121;-74
2022/11/05 02:43:37;;;;;;;2.95;1.25;;;8.70;75.60;;;;;;5060176;28;20040;-74
2022/11/05 02:46:33;;;;;;;2.58;1.35;;;8.70;75.60;;;;;;5065328;28;20052;-77
2022/11/05 02:49:10;;;;;;;4.55;1.80;;;8.70;75.60;;;;;;5077195;28;20104;-74
2022/11/05 02:51:47;;;;;;;6.30;1.80;;;8.70;76.00;;;;;;5077248;28;20040;-77
2022/11/05 02:54:22;;;;;;;3.08;1.48;;;8.70;75.60;;;;;;5068335;28;20128;-78
2022/11/05 02:56:50;;;;;;;6.85;2.15;;;8.70;75.60;;;;;;5073980;28;20040;-76
2022/11/05 02:59:16;;;;;;;4.65;2.00;;;8.60;75.60;;;;;;5077271;28;20036;-78
2022/11/05 03:01:44;;;;;;;3.97;2.15;;;8.60;75.60;;;;;;5077190;28;20102;-77
2022/11/05 03:04:12;;;;;;;3.28;1.30;;;8.60;75.70;;;;;;5060112;28;20050;-77
2022/11/05 03:06:56;;;;;;;3.13;1.48;;;8.60;76.20;;;;;;5077312;28;20047;-77
2022/11/05 03:10:00;;;;;;;4.10;1.50;;;8.60;75.80;;;;;;5077263;28;20418;-77
2022/11/05 03:12:31;;;;;;;3.80;1.80;;;8.60;75.80;;;;;;5077175;28;20115;-77
2022/11/05 03:15:13;;;;;;;2.65;1.33;;;8.60;75.90;;;;;;5077165;28;20028;-78
2022/11/05 03:18:05;;;;;;;4.50;1.60;;;8.60;75.90;;;;;;5076029;28;20059;-77
2022/11/05 03:20:39;;;;;;;3.50;1.55;;;8.60;75.90;;;;;;5076159;28;20132;-77
2022/11/05 03:23:17;;;;;;;3.58;1.80;;;8.60;76.00;;;;;;5076365;28;20047;-78
2022/11/05 03:25:47;;;;;;;3.47;1.90;;;8.60;75.90;;;;;;5076917;28;20399;-76
2022/11/05 03:28:15;;;;;;;6.10;2.55;;;8.60;76.00;;;;;;5073281;28;20563;-77
2022/11/05 03:30:41;;;;;;;6.50;1.98;;;8.60;76.30;;;;;;5068749;28;20399;-78
2022/11/05 03:33:21;;;;;;;6.43;2.08;;;8.50;75.90;;;;;;5076443;28;20044;-78
2022/11/05 03:35:53;;;;;;;4.88;1.60;;;8.50;75.90;;;;;;5076427;28;20038;-77
2022/11/05 03:38:24;;;;;;;3.80;1.80;;;8.50;75.90;;;;;;5095434;28;20051;-76
2022/11/05 03:40:53;;;;;;;6.20;2.33;;;8.50;75.90;;;;;;5059884;28;20053;-78
2022/11/05 03:43:23;;;;;;;3.70;1.80;;;8.50;75.90;;;;;;5059991;28;20051;-77
2022/11/05 03:46:31;;;;;;;4.65;2.42;;;8.50;76.00;;;;;;5076785;28;20358;-77
2022/11/05 03:49:00;;;;;;;4.30;1.80;;;8.50;76.00;;;;;;5073212;28;20062;-77
2022/11/05 03:51:42;;;;;;;5.43;2.15;;;8.50;76.00;;;;;;5059683;28;20078;-78
2022/11/05 03:54:08;;;;;;;4.63;2.60;;;8.50;76.00;;;;;;5076138;28;20040;-77
2022/11/05 03:57:20;;;;;;;5.05;2.25;;;8.50;76.00;;;;;;5043335;28;20040;-77
2022/11/05 03:59:48;;;;;;;4.13;2.10;;;8.50;76.00;;;;;;5075213;28;20044;-77
2022/11/05 04:02:17;;;;;;;4.60;2.38;;;8.50;76.10;;;;;;5092789;28;20518;-77
2022/11/05 04:04:43;;;;;;;4.18;2.33;;;8.50;76.50;;;;;;5056101;28;20384;-77
2022/11/05 04:15:23;;;;;;;5.40;2.67;;;8.40;76.00;;;;;;5055786;28;20128;-77
2022/11/05 04:17:50;;;;;;;4.88;2.53;;;8.40;76.00;;;;;;5035915;28;20504;-77
2022/11/05 04:25:47;;;;;;;5.20;2.80;;;8.40;75.90;;;;;;5072371;28;20040;-77
2022/11/05 04:28:13;;;;;;;3.92;2.10;;;8.50;76.00;;;;;;5072556;28;20373;-78
2022/11/05 04:30:39;;;;;;;5.75;2.80;;;8.40;75.90;;;;;;5071801;28;20036;-77
2022/11/05 04:33:14;;;;;;;6.50;3.45;;;8.40;75.90;;;;;;5053407;28;20115;-77
2022/11/05 04:35:47;;;;;;;5.50;2.97;;;8.40;75.90;;;;;;5055775;28;20480;-78
2022/11/05 04:38:17;;;;;;;6.00;3.00;;;8.40;75.80;;;;;;5072264;28;20079;-77
2022/11/05 04:40:44;;;;;;;5.03;2.60;;;8.40;75.80;;;;;;5072094;28;20044;-77
2022/11/05 04:43:13;;;;;;;6.10;3.83;;;8.40;75.80;;;;;;5035879;28;20052;-77
2022/11/05 04:45:39;;;;;;;4.70;2.75;;;8.30;75.70;;;;;;5054985;28;20439;-77
2022/11/05 04:48:05;;;;;;;4.82;3.13;;;8.30;75.70;;;;;;5055067;28;20079;-77
2022/11/05 04:50:31;;;;;;;5.32;2.72;;;8.30;75.70;;;;;;5059593;28;20036;-77
2022/11/05 04:52:57;;;;;;;6.88;2.85;;;8.30;75.80;;;;;;5059765;28;20062;-77
2022/11/05 04:55:23;;;;;;;4.15;2.90;;;8.30;75.80;;;;;;5055323;28;20128;-77
2022/11/05 04:57:53;;;;;;;4.05;2.85;;;8.30;75.80;;;;;;5072354;28;20483;-77
2022/11/05 05:00:20;;;;;;;5.10;3.20;;;8.30;75.80;;;;;;5071955;28;20028;-77
2022/11/05 05:02:47;;;;;;;6.88;3.00;;;8.30;75.80;;;;;;5071793;28;20044;-77
2022/11/05 05:05:13;;;;;;;5.50;2.72;;;8.30;75.80;;;;;;5071787;28;20045;-76
2022/11/05 05:07:40;;;;;;;5.25;3.08;;;8.30;75.70;;;;;;5071707;28;20059;-78
2022/11/05 05:10:07;;;;;;;5.93;3.15;;;8.30;75.70;;;;;;5055160;28;20090;-77
2022/11/05 05:12:33;;;;;;;5.85;3.42;;;8.20;75.70;;;;;;5072156;28;20040;-77
2022/11/05 05:14:58;;;;;;;6.18;2.70;;;8.20;75.70;;;;;;5071972;28;20040;-78
2022/11/05 05:17:24;;;;;;;4.75;2.50;;;8.20;75.60;;;;;;5071513;28;20063;-77
2022/11/05 05:22:34;;;;;;;6.63;2.97;;;8.20;75.70;;;;;;5071838;28;20055;-77
2022/11/05 05:25:00;;;;;;;5.63;3.30;;;8.20;75.70;;;;;;5071460;28;20032;-77
2022/11/05 05:27:29;;;;;;;6.05;3.28;;;8.20;75.70;;;;;;5051491;28;20045;-77
2022/11/05 05:29:56;;;;;;;6.03;3.25;;;8.20;75.70;;;;;;5068546;28;20044;-78
2022/11/05 05:32:23;;;;;;;4.80;3.05;;;8.10;75.70;;;;;;5055018;28;20040;-77
2022/11/05 05:34:49;;;;;;;3.55;2.30;;;8.10;75.70;;;;;;5054707;28;20037;-77
2022/11/05 05:37:14;;;;;;;5.80;2.42;;;8.10;75.80;;;;;;5054948;28;20036;-77
2022/11/05 05:39:40;;;;;;;3.97;2.63;;;8.10;75.80;;;;;;5072048;28;20079;-78
2022/11/05 05:42:06;;;;;;;4.75;2.60;;;8.10;75.90;;;;;;5072863;28;20036;-78
2022/11/05 05:44:31;;;;;;;4.85;3.70;;;8.10;75.90;;;;;;5058852;28;20070;-77
2022/11/05 05:46:57;;;;;;;4.97;3.10;;;8.10;76.00;;;;;;5075545;28;20093;-77
2022/11/05 05:49:23;;;;;;;4.63;2.85;;;8.10;76.00;;;;;;5058712;28;20040;-78
2022/11/05 05:51:48;;;;;;;5.32;3.03;;;8.10;76.10;;;;;;5055226;28;20451;-77
2022/11/05 05:54:15;;;;;;;4.38;2.65;;;8.10;76.10;;;;;;5022258;28;20037;-77
2022/11/05 05:56:44;;;;;;;5.00;2.75;;;8.10;76.10;;;;;;5055533;28;20044;-78
2022/11/05 05:59:09;;;;;;;4.90;2.97;;;8.10;76.20;;;;;;5045333;28;20097;-77
2022/11/05 06:01:35;;;;;;;4.90;2.50;;;8.10;76.20;;;;;;5058234;28;20045;-77
2022/11/05 06:04:01;;;;;;;4.60;2.70;;;8.10;76.30;;;;;;5058656;28;20041;-77
2022/11/05 06:06:27;;;;;;;4.47;2.90;;;8.00;76.30;;;;;;5071637;28;20040;-77
2022/11/05 06:08:54;;;;;;;5.03;2.53;;;8.00;76.30;;;;;;5038412;28;20048;-77
2022/11/05 06:11:21;;;;;;;3.90;2.28;;;8.10;76.50;;;;;;5045291;28;20459;-77
2022/11/05 06:13:47;;;;;;;3.42;2.42;;;8.10;76.90;;;;;;5074758;28;20075;-77
2022/11/05 06:16:13;;;;;;;4.35;2.38;;;8.00;76.50;;;;;;5055625;28;20121;-78
2022/11/05 06:18:38;;;;;;;6.25;2.40;;;8.10;76.60;;;;;;5041409;28;20083;-76
2022/11/05 06:21:10;;;;;;;9.80;4.50;;;8.00;76.60;;;;;;5056627;28;20051;-76
2022/11/05 06:23:37;;;;;;;6.32;2.83;;;8.10;76.70;;;;;;5077979;28;20040;-77
2022/11/05 06:26:05;;;;;;;5.70;3.35;;;8.10;76.70;;;;;;5041441;28;20048;-76
2022/11/05 06:28:32;;;;;;;4.32;2.40;;;8.00;76.60;;;;;;5077984;28;20040;-77
2022/11/05 06:30:58;;;;;;;4.18;2.47;;;8.10;76.70;;;;;;5077848;28;20123;-77
2022/11/05 06:33:24;;;;;;;4.65;2.80;;;8.00;76.70;;;;;;5078038;28;20071;-77
2022/11/05 06:35:50;;;;;;;4.40;3.00;;;8.10;76.70;;;;;;5061522;28;20113;-77
2022/11/05 06:38:16;;;;;;;4.15;3.20;;;8.00;76.70;;;;;;5077050;28;20039;-73
2022/11/05 06:40:41;;;;;;;5.57;3.08;;;8.10;76.80;;;;;;5060248;28;20040;-73
2022/11/05 06:43:07;;;;;;;4.68;2.80;;;8.00;76.70;;;;;;5077020;28;20134;-73
2022/11/05 06:45:33;;;;;;;5.72;3.40;;;8.00;76.70;;;;;;5093914;28;20115;-73
2022/11/05 06:47:59;;;;;;;5.93;2.95;;;8.00;76.70;;;;;;5060612;28;20044;-73
2022/11/05 06:50:25;;;;;;;5.15;2.72;;;8.00;76.70;;;;;;5076857;28;20064;-74
2022/11/05 06:52:53;;;;;;;4.30;2.67;;;8.00;76.80;;;;;;5071485;28;20392;-74
2022/11/05 06:55:19;;;;;;;7.25;3.08;;;8.10;76.90;;;;;;5076247;28;20036;-73
2022/11/05 06:57:44;;;;;;;7.03;3.30;;;8.00;76.80;;;;;;5076575;28;20036;-74
2022/11/05 07:00:10;;;;;;;7.38;3.60;;;8.00;76.80;;;;;;5056817;28;20044;-74
2022/11/05 07:02:36;;;;;;;4.00;2.97;;;8.10;76.80;;;;;;5072313;28;20395;-74
2022/11/05 07:05:02;;;;;;;3.88;3.03;;;8.00;76.80;;;;;;5059636;28;20047;-74
2022/11/05 07:07:28;;;;;;;5.80;3.00;;;8.00;76.80;;;;;;5076808;28;20047;-72
2022/11/05 07:09:53;;;;;;;8.75;3.10;;;8.00;76.80;;;;;;5070655;28;20041;-73
2022/11/05 07:12:19;;;;;;;4.63;3.30;;;8.00;76.80;;;;;;5028237;28;20039;-73
2022/11/05 07:14:44;;;;;;;6.63;2.30;;;8.00;76.80;;;;;;5052110;28;20162;-73
2022/11/05 07:17:10;;;;;;;6.50;3.00;;;8.00;76.90;;;;;;5059234;28;20048;-73
2022/11/05 07:19:36;;;;;;;4.90;2.85;;;8.00;77.00;;;;;;5059027;28;20051;-73
2022/11/05 07:22:01;;;;;;;4.88;3.03;;;8.00;77.00;;;;;;5059240;28;20036;-73
2022/11/05 07:24:27;;;;;;;5.53;3.30;;;8.00;77.00;;;;;;5068383;28;20100;-73
2022/11/05 07:26:53;;;;;;;4.85;3.13;;;8.00;77.00;;;;;;5075994;28;20399;-73
2022/11/05 07:29:18;;;;;;;6.07;3.28;;;8.00;77.10;;;;;;5075754;28;20063;-73
2022/11/05 07:31:45;;;;;;;8.68;4.13;;;8.10;77.20;;;;;;5057769;28;20120;-73
2022/11/05 07:34:11;;;;;;;9.00;5.00;;;8.10;77.30;;;;;;5059457;28;20032;-73
2022/11/05 07:36:38;;;;;;;6.22;4.35;;;8.10;77.70;;;;;;5059126;28;20043;-74
2022/11/05 07:39:04;;;;;;;7.80;4.07;;;8.10;78.30;;;;;;5058598;28;20378;-73
2022/11/05 07:41:30;;;;;;;6.65;3.75;;;8.20;78.90;;;;;;5042859;28;20387;-73
2022/11/05 07:43:55;;;;;;;5.32;3.60;;;8.30;79.30;;;;;;5059657;28;20028;-73
2022/11/05 07:46:21;;;;;;;6.05;3.67;;;8.50;79.60;;;;;;5059007;28;20039;-73
2022/11/05 07:48:46;;;;;;;5.55;3.40;;;8.70;79.80;;;;;;5074867;28;20458;-72
2022/11/05 07:51:12;;;;;;;4.93;3.45;;;8.90;79.70;;;;;;5058565;28;20525;-71
2022/11/05 07:53:38;;;;;;;6.82;3.35;;;9.10;79.10;;;;;;5075527;28;20039;-72
2022/11/05 07:56:04;;;;;;;5.95;3.30;;;9.30;78.60;;;;;;5075518;28;20032;-71
2022/11/05 07:58:30;;;;;;;4.68;2.72;;;9.60;78.20;;;;;;5058518;28;20043;-72
2022/11/05 08:00:56;;;;;;;5.63;3.33;;;9.90;77.70;;;;;;5058607;28;20040;-72
2022/11/05 08:03:22;;;;;;;6.45;2.97;;;10.10;77.00;;;;;;5064581;28;20123;-71
2022/11/05 08:05:48;;;;;;;6.65;2.97;;;10.30;76.40;;;;;;5074795;28;20135;-72
2022/11/05 08:08:15;;;;;;;7.70;3.10;;;10.50;75.80;;;;;;5071431;28;20083;-72
2022/11/05 08:10:41;;;;;;;4.47;2.45;;;10.80;75.30;;;;;;5066257;28;20036;-72
2022/11/05 08:13:08;;;;;;;5.97;2.60;;;11.00;74.70;;;;;;5069595;28;20128;-71
2022/11/05 08:15:34;;;;;;;4.75;2.67;;;11.20;73.90;;;;;;5024621;28;20036;-72
2022/11/05 08:18:14;;;;;;;3.63;2.35;;;11.40;73.30;;;;;;5065921;28;20126;-72
2022/11/05 08:20:41;;;;;;;5.57;2.83;;;11.50;72.40;;;;;;5075426;28;20492;-72
2022/11/05 08:23:08;;;;;;;4.50;2.42;;;11.70;72.30;;;;;;5036765;28;20051;-72
2022/11/05 08:25:34;;;;;;;5.25;2.47;;;11.80;71.80;;;;;;5074402;28;20528;-72
2022/11/05 08:28:02;;;;;;;3.85;2.30;;;12.00;71.20;;;;;;5052980;28;20040;-73
2022/11/05 08:30:29;;;;;;;4.07;2.70;;;12.20;70.90;;;;;;5057043;28;20073;-72
2022/11/05 08:32:57;;;;;;;3.97;2.22;;;12.40;70.60;;;;;;5074142;28;20043;-72
2022/11/05 08:35:22;;;;;;;3.65;2.15;;;12.50;70.10;;;;;;5036008;28;20036;-72
2022/11/05 08:37:48;;;;;;;4.72;2.25;;;12.70;69.60;;;;;;5044630;28;20032;-73
2022/11/05 08:40:14;;;;;;;5.82;2.17;;;12.70;69.10;;;;;;5053470;28;20043;-72
2022/11/05 08:42:39;;;;;;;3.80;2.30;;;12.90;69.00;;;;;;5054637;28;20045;-73
2022/11/05 08:45:05;;;;;;;3.65;1.80;;;13.00;68.60;;;;;;5056135;28;20044;-73
2022/11/05 08:47:31;;;;;;;6.35;2.72;;;13.10;68.10;;;;;;5057993;28;20115;-73
2022/11/05 08:49:57;;;;;;;5.35;2.53;;;13.30;67.90;;;;;;5041436;28;20119;-72
2022/11/05 08:52:22;;;;;;;4.15;2.40;;;13.30;67.60;;;;;;5057803;28;20040;-73
2022/11/05 08:54:48;;;;;;;5.35;2.50;;;13.40;67.30;;;;;;5058033;28;20036;-72
2022/11/05 08:57:14;;;;;;;4.82;2.30;;;13.50;67.10;;;;;;5058004;28;20119;-76
2022/11/05 08:59:39;;;;;;;4.25;2.17;;;13.60;66.70;;;;;;5057530;28;20476;-72
2022/11/05 09:02:05;;;;;;;3.45;2.25;;;13.60;66.60;;;;;;5057945;28;20427;-72
2022/11/05 09:04:31;;;;;;;4.05;2.45;;;13.70;66.80;;;;;;5074726;28;20409;-72
2022/11/05 09:06:56;;;;;;;4.07;2.63;;;13.70;66.50;;;;;;5057849;28;20046;-73
2022/11/05 09:09:22;;;;;;;4.28;2.17;;;13.80;66.30;;;;;;5066174;28;20048;-73
2022/11/05 09:11:48;;;;;;;4.85;2.58;;;13.80;66.10;;;;;;5057803;28;20032;-72
2022/11/05 09:14:13;;;;;;;5.00;1.92;;;13.90;66.00;;;;;;5068213;28;20040;-72
2022/11/05 09:16:41;;;;;;;4.75;1.88;;;13.90;66.00;;;;;;5043631;28;20115;-72
2022/11/05 09:19:07;;;;;;;5.30;2.00;;;14.00;65.80;;;;;;5073130;28;20066;-73
2022/11/05 09:21:33;;;;;;;3.40;1.70;;;14.00;65.70;;;;;;5069693;28;20068;-72
2022/11/05 09:23:59;;;;;;;4.43;1.80;;;14.10;65.60;;;;;;5071140;28;20040;-72
2022/11/05 09:26:25;;;;;;;3.55;1.65;;;14.10;65.40;;;;;;5061595;28;20070;-72
2022/11/05 09:28:50;;;;;;;2.60;1.50;;;14.00;65.80;;;;;;5045010;28;20059;-72
2022/11/05 09:31:16;;;;;;;3.30;1.55;;;14.00;65.40;;;;;;5061803;28;20044;-73
2022/11/05 09:33:42;;;;;;;5.18;2.08;;;14.10;65.50;;;;;;5070341;28;20719;-73
2022/11/05 09:36:07;;;;;;;4.28;2.20;;;14.10;65.50;;;;;;5059600;28;20039;-73
2022/11/05 09:38:34;;;;;;;4.68;1.80;;;14.10;65.60;;;;;;5066509;28;20028;-73
2022/11/05 09:41:14;;;;;;;5.97;1.98;;;14.10;65.60;;;;;;5073052;28;20063;-73
2022/11/05 09:43:44;;;;;;;3.00;1.67;;;14.00;65.70;;;;;;5078173;28;20039;-73
2022/11/05 09:46:24;;;;;;;4.38;1.60;;;14.00;66.00;;;;;;5068159;28;20372;-73
2022/11/05 09:49:06;;;;;;;3.85;1.50;;;14.00;66.00;;;;;;5060933;28;20571;-73
2022/11/05 09:51:33;;;;;;;4.07;1.77;;;14.00;65.90;;;;;;5077951;28;20118;-73
2022/11/05 09:53:59;;;;;;;5.95;1.73;;;14.00;65.80;;;;;;5061229;28;20084;-73
2022/11/05 09:56:32;;;;;;;5.53;1.77;;;14.00;65.80;;;;;;5060446;28;21680;-72
2022/11/05 09:59:16;;;;;;;2.88;1.50;;;14.00;65.70;;;;;;5077704;28;20096;-72
2022/11/05 10:01:43;;;;;;;3.97;1.90;;;14.00;65.80;;;;;;5077513;28;20036;-72
2022/11/05 10:04:18;;;;;;;5.57;1.63;;;13.90;65.70;;;;;;5060196;28;20037;-72
2022/11/05 10:07:00;;;;;;;4.50;1.40;;;13.90;65.70;;;;;;5064051;28;20071;-72
2022/11/05 10:09:46;;;;;;;5.90;1.70;;;13.90;65.60;;;;;;5074773;28;20076;-72
2022/11/05 10:12:18;;;;;;;3.80;1.45;;;13.90;65.70;;;;;;5067557;28;20037;-71
2022/11/05 10:14:50;;;;;;;6.72;1.63;;;13.90;65.90;;;;;;5077512;28;20098;-72
2022/11/05 10:17:26;;;;;;;4.10;1.73;;;13.90;65.70;;;;;;5074650;28;20142;-72
2022/11/05 10:20:28;;;;;;;5.45;1.80;;;13.90;65.70;;;;;;5069122;28;20109;-71
2022/11/05 10:22:59;;;;;;;3.42;1.70;;;13.80;65.80;;;;;;5077575;28;20063;-71
2022/11/05 10:25:35;;;;;;;4.88;2.22;;;13.80;65.90;;;;;;5048572;28;20047;-72
2022/11/05 10:28:03;;;;;;;5.05;2.00;;;13.80;65.50;;;;;;5076977;28;20130;-72
2022/11/05 10:30:29;;;;;;;5.75;1.98;;;13.70;65.70;;;;;;5076660;28;20032;-72
2022/11/05 10:32:58;;;;;;;4.50;2.00;;;13.70;65.80;;;;;;5045628;28;20037;-71
2022/11/05 10:35:28;;;;;;;5.28;2.08;;;13.70;66.00;;;;;;5066816;28;20069;-71
2022/11/05 10:37:55;;;;;;;3.53;1.80;;;13.60;66.20;;;;;;5094114;28;20460;-71
2022/11/05 10:40:39;;;;;;;3.30;1.52;;;13.60;66.20;;;;;;5094242;28;20045;-71
2022/11/05 10:43:14;;;;;;;3.03;1.63;;;13.60;66.10;;;;;;5077140;28;20044;-72
2022/11/05 10:46:17;;;;;;;2.65;1.38;;;13.60;66.50;;;;;;5060376;28;20051;-72
2022/11/05 10:49:00;;;;;;;5.03;2.10;;;13.60;66.70;;;;;;5076513;28;20048;-72
2022/11/05 10:51:26;;;;;;;4.00;1.38;;;13.60;67.10;;;;;;5060607;28;20036;-71
2022/11/05 10:53:55;;;;;;;4.20;1.30;;;13.60;67.00;;;;;;5076256;28;20035;-73
2022/11/05 10:56:40;;;;;;;6.35;1.88;;;13.60;66.90;;;;;;5075429;28;20028;-75
2022/11/05 10:59:20;;;;;;;3.67;1.35;;;13.70;66.60;;;;;;5053234;28;20593;-72
2022/11/05 11:01:45;;;;;;;4.13;1.70;;;13.70;66.80;;;;;;5075916;28;20036;-71
2022/11/05 11:04:21;;;;;;;5.47;2.15;;;13.70;66.70;;;;;;5086155;28;20039;-71
2022/11/05 11:06:54;;;;;;;3.67;1.40;;;13.70;66.70;;;;;;5076683;28;20043;-71
2022/11/05 11:09:27;;;;;;;3.13;1.50;;;13.70;66.00;;;;;;5059778;28;20089;-70
2022/11/05 11:12:04;;;;;;;4.05;1.75;;;13.70;66.10;;;;;;5073804;28;20115;-71
2022/11/05 11:14:30;;;;;;;3.83;1.40;;;13.70;66.20;;;;;;5074479;28;20032;-70
2022/11/05 11:17:25;;;;;;;5.70;1.42;;;13.70;66.30;;;;;;5076505;28;20058;-70
2022/11/05 11:20:10;;;;;;;4.50;1.63;;;13.70;66.30;;;;;;5076094;28;20047;-71
2022/11/05 11:22:35;;;;;;;2.70;1.45;;;13.70;66.40;;;;;;5076067;28;20036;-71
2022/11/05 11:25:21;;;;;;;3.00;1.40;;;13.70;66.40;;;;;;5058807;28;20114;-71
2022/11/05 11:27:47;;;;;;;4.82;1.88;;;13.70;66.20;;;;;;5059432;28;20097;-71
2022/11/05 11:30:18;;;;;;;5.43;1.60;;;13.70;66.50;;;;;;5071653;28;20040;-71
2022/11/05 11:32:46;;;;;;;4.55;1.95;;;13.70;66.50;;;;;;5076295;28;20051;-71
2022/11/05 11:35:23;;;;;;;6.25;2.17;;;13.70;66.50;;;;;;5092633;28;20043;-71
2022/11/05 11:37:53;;;;;;;5.20;1.85;;;13.60;66.70;;;;;;5062674;28;20476;-71
2022/11/05 11:40:20;;;;;;;6.65;2.83;;;13.60;66.50;;;;;;5074947;28;20043;-71
2022/11/05 11:42:58;;;;;;;3.38;1.90;;;13.60;66.50;;;;;;5059212;28;20040;-71
2022/11/05 11:45:30;;;;;;;5.35;2.00;;;13.60;66.40;;;;;;5071065;28;20411;-71
2022/11/05 11:47:59;;;;;;;5.47;1.80;;;13.60;66.40;;;;;;5073038;28;20052;-72
2022/11/05 11:50:42;;;;;;;3.90;1.90;;;13.50;66.30;;;;;;5058760;28;20068;-71
2022/11/05 11:53:20;;;;;;;5.22;1.75;;;13.50;66.30;;;;;;5075268;28;20040;-72
2022/11/05 11:56:19;;;;;;;5.90;2.00;;;13.50;66.50;;;;;;5075557;28;20101;-71
2022/11/05 11:58:50;;;;;;;6.68;2.05;;;13.50;66.60;;;;;;5053958;28;20460;-72
2022/11/05 12:01:16;;;;;;;3.88;1.50;;;13.40;66.30;;;;;;5066412;28;20036;-71
2022/11/05 12:03:45;;;;;;;3.97;1.40;;;13.40;66.50;;;;;;5071706;28;20426;-71
2022/11/05 12:06:22;;;;;;;5.18;1.98;;;13.40;66.60;;;;;;5057278;28;20127;-71
2022/11/05 12:08:54;;;;;;;6.13;1.98;;;13.40;66.70;;;;;;5075127;28;20101;-71
2022/11/05 12:11:29;;;;;;;6.70;2.35;;;13.40;66.30;;;;;;5075291;28;20380;-71
2022/11/05 12:14:03;;;;;;;4.00;1.88;;;13.40;66.50;;;;;;5075042;28;20123;-71
2022/11/05 12:16:34;;;;;;;3.50;1.60;;;13.40;66.70;;;;;;5075071;28;20044;-71
2022/11/05 12:19:03;;;;;;;6.15;2.30;;;13.40;66.90;;;;;;5074897;28;20043;-71
2022/11/05 12:22:03;;;;;;;3.78;2.10;;;13.40;67.00;;;;;;5074937;28;20082;-71
2022/11/05 12:25:10;;;;;;;4.22;2.00;;;13.30;66.90;;;;;;5074834;28;20511;-72
2022/11/05 12:27:46;;;;;;;4.68;2.28;;;13.40;67.00;;;;;;5091889;28;20036;-71
2022/11/05 12:30:18;;;;;;;6.53;2.53;;;13.30;67.00;;;;;;5075132;28;20032;-71
2022/11/05 12:33:16;;;;;;;5.00;2.35;;;13.40;67.20;;;;;;5078453;28;20055;-72
2022/11/05 12:36:03;;;;;;;5.50;2.50;;;13.40;67.00;;;;;;5075224;28;20046;-72
2022/11/05 12:38:56;;;;;;;4.18;2.42;;;13.30;67.10;;;;;;5074830;28;20035;-72
2022/11/05 12:41:29;;;;;;;5.57;2.90;;;13.30;67.20;;;;;;5069946;28;20041;-72
2022/11/05 12:44:12;;;;;;;5.72;2.90;;;13.30;67.20;;;;;;5066371;28;20518;-72
2022/11/05 12:47:03;;;;;;;6.75;2.63;;;13.40;67.10;;;;;;5070440;28;20123;-72
2022/11/05 12:49:32;;;;;;;8.43;2.60;;;13.40;67.10;;;;;;5071480;28;20045;-71
2022/11/05 12:52:06;;;;;;;6.32;2.53;;;13.40;67.10;;;;;;5066607;28;20048;-71
2022/11/05 12:54:49;;;;;;;6.30;3.20;;;13.40;67.20;;;;;;5074500;28;20036;-71
2022/11/05 12:57:16;;;;;;;9.13;3.90;;;13.30;67.30;;;;;;5063105;28;20174;-71
2022/11/05 12:59:55;;;;;;;6.70;2.83;;;13.40;67.50;;;;;;5074086;28;20683;-71
2022/11/05 13:02:33;;;;;;;5.75;3.20;;;13.40;67.50;;;;;;5074141;28;20048;-71
2022/11/05 13:05:05;;;;;;;5.05;3.10;;;13.40;67.50;;;;;;5071458;28;20044;-70
2022/11/05 13:07:37;;;;;;;6.95;4.00;;;13.40;67.30;;;;;;5065075;28;20036;-71
2022/11/05 13:10:28;;;;;;;5.45;2.65;;;13.40;67.30;;;;;;5042599;28;20044;-71
2022/11/05 13:13:05;;;;;;;7.80;3.28;;;13.40;67.40;;;;;;5056886;28;20368;-70
2022/11/05 13:15:44;;;;;;;6.60;3.25;;;13.40;67.50;;;;;;5071117;28;20147;-71
2022/11/05 13:18:15;;;;;;;7.78;3.10;;;13.40;67.50;;;;;;5063739;28;20052;-71
2022/11/05 13:20:46;;;;;;;6.55;3.55;;;13.30;67.50;;;;;;5064865;28;20036;-71
2022/11/05 13:23:23;;;;;;;8.82;3.00;;;13.40;67.30;;;;;;5065858;28;20032;-71
2022/11/05 13:25:54;;;;;;;7.78;3.30;;;13.40;67.20;;;;;;5080808;28;20094;-71
2022/11/05 13:28:26;;;;;;;7.60;2.83;;;13.30;67.40;;;;;;5061511;28;20036;-70
2022/11/05 13:30:56;;;;;;;5.47;2.63;;;13.40;67.30;;;;;;5067804;28;20036;-71
2022/11/05 13:33:35;;;;;;;5.03;2.85;;;13.30;67.20;;;;;;5085354;28;20115;-76
2022/11/05 13:39:14;;;;;;;7.25;2.85;;;13.40;67.50;;;;;;5079692;28;20151;-77
2022/11/05 13:42:01;;;;;;;6.22;3.10;;;13.30;66.90;;;;;;5044612;28;20045;-77
2022/11/05 13:44:44;;;;;;;8.38;3.35;;;13.30;67.00;;;;;;5068879;28;20048;-76
2022/11/05 13:47:48;;;;;;;5.77;2.47;;;13.30;66.90;;;;;;5061350;28;20132;-76
2022/11/05 13:50:40;;;;;;;6.57;2.95;;;13.30;66.60;;;;;;5054752;28;20394;-76
2022/11/05 13:53:14;;;;;;;7.97;3.40;;;13.20;66.90;;;;;;5073886;28;20032;-77
2022/11/05 13:56:08;;;;;;;6.03;2.88;;;13.20;67.20;;;;;;5066850;28;20475;-76
2022/11/05 13:59:08;;;;;;;8.02;3.22;;;13.20;67.00;;;;;;5071371;28;20043;-77